sensor_id;sensor_type;location;lat;lon;timestamp;pressure;altitude;pressure_sealevel;temperature;humidity
29941;BME280;16801;53.562;10.038;2023-09-19T00:03:05;100282.88;;;17.36;100.00
29941;BME280;16801;53.562;10.038;2023-09-19T00:06:28;100279.38;;;17.21;100.00
29941;BME280;16801;53.562;10.038;2023-09-19T00:09:50;100287.03;;;17.32;100.00
29941;BME280;16801;53.562;10.038;2023-09-19T00:13:11;100284.66;;;17.23;100.00
29941;BME280;16801;53.562;10.038;2023-09-19T00:16:33;100279.63;;;17.26;100.00
29941;BME280;16801;53.562;10.038;2023-09-19T00:19:56;100293.72;;;17.30;100.00
29941;BME280;16801;53.562;10.038;2023-09-19T00:23:17;100292.84;;;17.29;100.00
29941;BME280;16801;53.562;10.038;2023-09-19T00:26:38;100271.13;;;17.36;100.00
29941;BME280;16801;53.562;10.038;2023-09-19T00:29:59;100293.63;;;17.23;100.00
29941;BME280;16801;53.562;10.038;2023-09-19T00:33:21;100276.91;;;17.26;100.00
29941;BME280;16801;53.562;10.038;2023-09-19T00:36:43;100283.72;;;17.16;100.00
29941;BME280;16801;53.562;10.038;2023-09-19T00:40:05;100285.22;;;17.18;100.00
29941;BME280;16801;53.562;10.038;2023-09-19T00:43:30;100293.31;;;17.12;100.00
29941;BME280;16801;53.562;10.038;2023-09-19T00:46:54;100293.38;;;17.18;100.00
29941;BME280;16801;53.562;10.038;2023-09-19T00:50:17;100285.59;;;17.15;100.00
29941;BME280;16801;53.562;10.038;2023-09-19T00:53:40;100289.47;;;17.27;100.00
29941;BME280;16801;53.562;10.038;2023-09-19T00:57:05;100293.84;;;17.22;100.00
29941;BME280;16801;53.562;10.038;2023-09-19T01:00:28;100296.47;;;17.15;100.00
29941;BME280;16801;53.562;10.038;2023-09-19T01:03:50;100307.53;;;17.28;100.00
29941;BME280;16801;53.562;10.038;2023-09-19T01:07:11;100302.41;;;17.19;100.00
29941;BME280;16801;53.562;10.038;2023-09-19T01:10:36;100298.19;;;17.16;100.00
29941;BME280;16801;53.562;10.038;2023-09-19T01:14:04;100316.97;;;17.11;100.00
29941;BME280;16801;53.562;10.038;2023-09-19T01:17:34;100305.13;;;17.19;100.00
29941;BME280;16801;53.562;10.038;2023-09-19T01:21:02;100321.66;;;17.17;100.00
29941;BME280;16801;53.562;10.038;2023-09-19T01:24:55;100315.63;;;17.22;100.00
29941;BME280;16801;53.562;10.038;2023-09-19T01:28:32;100318.06;;;17.17;100.00
29941;BME280;16801;53.562;10.038;2023-09-19T01:32:01;100319.34;;;17.14;100.00
29941;BME280;16801;53.562;10.038;2023-09-19T01:35:24;100327.66;;;17.13;100.00
29941;BME280;16801;53.562;10.038;2023-09-19T01:38:45;100320.63;;;17.18;100.00
29941;BME280;16801;53.562;10.038;2023-09-19T01:42:10;100329.47;;;17.20;100.00
29941;BME280;16801;53.562;10.038;2023-09-19T01:45:47;100332.06;;;17.28;100.00
29941;BME280;16801;53.562;10.038;2023-09-19T01:49:22;100336.84;;;17.26;100.00
29941;BME280;16801;53.562;10.038;2023-09-19T01:52:49;100340.81;;;17.24;100.00
29941;BME280;16801;53.562;10.038;2023-09-19T01:56:19;100345.31;;;17.17;99.82
29941;BME280;16801;53.562;10.038;2023-09-19T01:59:52;100342.78;;;17.15;97.36
29941;BME280;16801;53.562;10.038;2023-09-19T02:03:16;100347.59;;;17.13;95.70
29941;BME280;16801;53.562;10.038;2023-09-19T02:06:41;100350.41;;;17.20;94.99
29941;BME280;16801;53.562;10.038;2023-09-19T02:10:02;100346.38;;;17.16;94.48
29941;BME280;16801;53.562;10.038;2023-09-19T02:13:25;100365.00;;;17.12;94.88
29941;BME280;16801;53.562;10.038;2023-09-19T02:16:47;100355.03;;;17.05;95.42
29941;BME280;16801;53.562;10.038;2023-09-19T02:20:11;100366.41;;;17.08;96.23
29941;BME280;16801;53.562;10.038;2023-09-19T02:23:35;100377.66;;;17.05;97.38
29941;BME280;16801;53.562;10.038;2023-09-19T02:26:56;100370.72;;;17.03;98.20
29941;BME280;16801;53.562;10.038;2023-09-19T02:30:18;100370.16;;;16.93;98.72
29941;BME280;16801;53.562;10.038;2023-09-19T02:33:40;100369.72;;;16.89;99.09
29941;BME280;16801;53.562;10.038;2023-09-19T02:37:02;100372.44;;;16.89;99.57
29941;BME280;16801;53.562;10.038;2023-09-19T02:40:26;100367.84;;;16.90;99.95
29941;BME280;16801;53.562;10.038;2023-09-19T02:43:48;100368.13;;;16.80;100.00
29941;BME280;16801;53.562;10.038;2023-09-19T02:47:09;100378.25;;;16.86;100.00
29941;BME280;16801;53.562;10.038;2023-09-19T02:50:30;100376.84;;;16.90;100.00
29941;BME280;16801;53.562;10.038;2023-09-19T02:53:51;100386.63;;;16.85;100.00
29941;BME280;16801;53.562;10.038;2023-09-19T02:57:15;100382.13;;;16.77;100.00
29941;BME280;16801;53.562;10.038;2023-09-19T03:00:37;100370.84;;;16.80;99.95
29941;BME280;16801;53.562;10.038;2023-09-19T03:03:59;100373.75;;;16.78;99.90
29941;BME280;16801;53.562;10.038;2023-09-19T03:07:20;100375.72;;;16.70;99.39
29941;BME280;16801;53.562;10.038;2023-09-19T03:10:42;100385.41;;;16.87;98.76
29941;BME280;16801;53.562;10.038;2023-09-19T03:14:05;100382.03;;;16.70;97.93
29941;BME280;16801;53.562;10.038;2023-09-19T03:17:26;100386.81;;;16.68;98.03
29941;BME280;16801;53.562;10.038;2023-09-19T03:20:52;100399.09;;;16.64;97.33
29941;BME280;16801;53.562;10.038;2023-09-19T03:24:15;100400.22;;;16.70;97.65
29941;BME280;16801;53.562;10.038;2023-09-19T03:27:37;100404.25;;;16.74;97.67
29941;BME280;16801;53.562;10.038;2023-09-19T03:31:01;100401.63;;;16.66;96.98
29941;BME280;16801;53.562;10.038;2023-09-19T03:34:24;100394.47;;;16.65;96.18
29941;BME280;16801;53.562;10.038;2023-09-19T03:37:45;100397.03;;;16.66;96.20
29941;BME280;16801;53.562;10.038;2023-09-19T03:41:09;100405.75;;;16.62;96.40
29941;BME280;16801;53.562;10.038;2023-09-19T03:44:34;100407.53;;;16.55;96.66
29941;BME280;16801;53.562;10.038;2023-09-19T03:47:56;100417.56;;;16.54;96.31
29941;BME280;16801;53.562;10.038;2023-09-19T03:51:18;100419.00;;;16.42;95.88
29941;BME280;16801;53.562;10.038;2023-09-19T03:54:39;100417.16;;;16.43;93.99
29941;BME280;16801;53.562;10.038;2023-09-19T03:58:01;100414.69;;;16.33;93.09
29941;BME280;16801;53.562;10.038;2023-09-19T04:01:21;100422.75;;;16.27;92.04
29941;BME280;16801;53.562;10.038;2023-09-19T04:04:43;100433.78;;;16.25;92.13
29941;BME280;16801;53.562;10.038;2023-09-19T04:08:04;100436.91;;;16.22;90.48
29941;BME280;16801;53.562;10.038;2023-09-19T04:11:25;100432.06;;;16.10;89.54
29941;BME280;16801;53.562;10.038;2023-09-19T04:14:46;100458.53;;;15.93;88.64
29941;BME280;16801;53.562;10.038;2023-09-19T04:18:07;100452.25;;;15.92;88.00
29941;BME280;16801;53.562;10.038;2023-09-19T04:21:29;100458.06;;;15.89;87.26
29941;BME280;16801;53.562;10.038;2023-09-19T04:24:50;100466.44;;;15.80;87.39
29941;BME280;16801;53.562;10.038;2023-09-19T04:28:11;100460.53;;;15.76;86.63
29941;BME280;16801;53.562;10.038;2023-09-19T04:31:32;100488.19;;;15.80;86.54
29941;BME280;16801;53.562;10.038;2023-09-19T04:34:52;100481.00;;;15.64;86.76
29941;BME280;16801;53.562;10.038;2023-09-19T04:38:15;100500.69;;;15.66;86.59
29941;BME280;16801;53.562;10.038;2023-09-19T04:41:36;100494.38;;;15.66;86.89
29941;BME280;16801;53.562;10.038;2023-09-19T04:44:58;100496.81;;;15.53;87.10
29941;BME280;16801;53.562;10.038;2023-09-19T04:48:19;100511.09;;;15.55;87.76
29941;BME280;16801;53.562;10.038;2023-09-19T04:51:40;100501.25;;;15.54;87.77
29941;BME280;16801;53.562;10.038;2023-09-19T04:55:04;100504.16;;;15.44;87.84
29941;BME280;16801;53.562;10.038;2023-09-19T04:58:25;100507.06;;;15.35;87.66
29941;BME280;16801;53.562;10.038;2023-09-19T05:01:45;100512.16;;;15.30;87.84
29941;BME280;16801;53.562;10.038;2023-09-19T05:05:07;100513.00;;;15.38;87.76
29941;BME280;16801;53.562;10.038;2023-09-19T05:08:29;100508.59;;;15.45;87.87
29941;BME280;16801;53.562;10.038;2023-09-19T05:11:51;100512.84;;;15.32;88.26
29941;BME280;16801;53.562;10.038;2023-09-19T05:15:13;100515.03;;;15.36;88.23
29941;BME280;16801;53.562;10.038;2023-09-19T05:18:36;100526.41;;;15.32;87.88
29941;BME280;16801;53.562;10.038;2023-09-19T05:21:57;100522.19;;;15.29;88.31
29941;BME280;16801;53.562;10.038;2023-09-19T05:25:18;100524.59;;;15.24;88.65
29941;BME280;16801;53.562;10.038;2023-09-19T05:28:41;100533.06;;;15.21;89.25
29941;BME280;16801;53.562;10.038;2023-09-19T05:32:03;100533.72;;;15.31;89.29
29941;BME280;16801;53.562;10.038;2023-09-19T05:35:25;100535.94;;;15.28;89.66
29941;BME280;16801;53.562;10.038;2023-09-19T05:38:46;100535.31;;;15.17;90.12
29941;BME280;16801;53.562;10.038;2023-09-19T05:42:09;100529.34;;;15.22;89.92
29941;BME280;16801;53.562;10.038;2023-09-19T05:45:32;100521.03;;;15.23;89.21
29941;BME280;16801;53.562;10.038;2023-09-19T05:48:53;100532.25;;;15.20;89.48
29941;BME280;16801;53.562;10.038;2023-09-19T05:52:13;100533.59;;;15.25;89.12
29941;BME280;16801;53.562;10.038;2023-09-19T05:55:34;100546.97;;;15.34;88.82
29941;BME280;16801;53.562;10.038;2023-09-19T05:58:55;100550.00;;;15.39;88.78
29941;BME280;16801;53.562;10.038;2023-09-19T06:02:17;100554.63;;;15.31;88.83
29941;BME280;16801;53.562;10.038;2023-09-19T06:05:39;100556.59;;;15.53;88.31
29941;BME280;16801;53.562;10.038;2023-09-19T06:09:01;100543.53;;;15.48;88.48
29941;BME280;16801;53.562;10.038;2023-09-19T06:12:25;100546.88;;;15.58;88.59
29941;BME280;16801;53.562;10.038;2023-09-19T06:15:45;100553.69;;;15.62;88.71
29941;BME280;16801;53.562;10.038;2023-09-19T06:19:08;100551.66;;;15.64;88.33
29941;BME280;16801;53.562;10.038;2023-09-19T06:22:30;100565.53;;;15.69;88.48
29941;BME280;16801;53.562;10.038;2023-09-19T06:25:50;100544.94;;;15.83;88.10
29941;BME280;16801;53.562;10.038;2023-09-19T06:29:11;100554.47;;;15.79;88.00
29941;BME280;16801;53.562;10.038;2023-09-19T06:32:33;100566.16;;;15.79;87.43
29941;BME280;16801;53.562;10.038;2023-09-19T06:35:56;100574.88;;;15.75;87.39
29941;BME280;16801;53.562;10.038;2023-09-19T06:39:19;100569.81;;;15.94;87.21
29941;BME280;16801;53.562;10.038;2023-09-19T06:42:44;100555.19;;;16.04;87.03
29941;BME280;16801;53.562;10.038;2023-09-19T06:46:06;100572.41;;;15.88;86.10
29941;BME280;16801;53.562;10.038;2023-09-19T06:49:27;100576.66;;;15.90;86.74
29941;BME280;16801;53.562;10.038;2023-09-19T06:52:51;100573.59;;;15.85;86.68
29941;BME280;16801;53.562;10.038;2023-09-19T06:56:13;100579.41;;;16.13;86.63
29941;BME280;16801;53.562;10.038;2023-09-19T06:59:35;100568.84;;;16.18;86.49
29941;BME280;16801;53.562;10.038;2023-09-19T07:02:57;100568.47;;;16.21;86.70
29941;BME280;16801;53.562;10.038;2023-09-19T07:06:20;100589.84;;;16.02;86.20
29941;BME280;16801;53.562;10.038;2023-09-19T07:09:42;100592.91;;;16.29;85.65
29941;BME280;16801;53.562;10.038;2023-09-19T07:13:05;100617.63;;;16.20;85.33
29941;BME280;16801;53.562;10.038;2023-09-19T07:16:28;100610.13;;;16.22;85.59
29941;BME280;16801;53.562;10.038;2023-09-19T07:19:49;100617.22;;;16.31;85.49
29941;BME280;16801;53.562;10.038;2023-09-19T07:23:10;100614.06;;;16.42;85.33
29941;BME280;16801;53.562;10.038;2023-09-19T07:26:33;100620.56;;;16.41;85.28
29941;BME280;16801;53.562;10.038;2023-09-19T07:29:54;100627.25;;;16.30;85.65
29941;BME280;16801;53.562;10.038;2023-09-19T07:33:14;100612.84;;;16.52;84.98
29941;BME280;16801;53.562;10.038;2023-09-19T07:36:35;100612.88;;;16.44;85.17
29941;BME280;16801;53.562;10.038;2023-09-19T07:39:57;100625.38;;;16.31;84.66
29941;BME280;16801;53.562;10.038;2023-09-19T07:43:20;100637.66;;;16.27;84.87
29941;BME280;16801;53.562;10.038;2023-09-19T07:46:41;100635.19;;;16.40;85.14
29941;BME280;16801;53.562;10.038;2023-09-19T07:50:04;100637.56;;;16.12;85.98
29941;BME280;16801;53.562;10.038;2023-09-19T07:53:26;100638.09;;;16.08;85.71
29941;BME280;16801;53.562;10.038;2023-09-19T07:56:47;100632.69;;;15.99;85.74
29941;BME280;16801;53.562;10.038;2023-09-19T08:00:10;100637.56;;;15.65;88.72
29941;BME280;16801;53.562;10.038;2023-09-19T08:03:32;100646.75;;;15.72;89.36
29941;BME280;16801;53.562;10.038;2023-09-19T08:06:53;100643.13;;;15.80;89.01
29941;BME280;16801;53.562;10.038;2023-09-19T08:10:16;100657.06;;;15.85;88.68
29941;BME280;16801;53.562;10.038;2023-09-19T08:13:39;100659.84;;;15.61;89.40
29941;BME280;16801;53.562;10.038;2023-09-19T08:17:04;100648.00;;;15.92;88.79
29941;BME280;16801;53.562;10.038;2023-09-19T08:20:26;100658.38;;;15.97;87.68
29941;BME280;16801;53.562;10.038;2023-09-19T08:23:47;100645.06;;;16.10;86.67
29941;BME280;16801;53.562;10.038;2023-09-19T08:27:07;100651.31;;;16.19;85.39
29941;BME280;16801;53.562;10.038;2023-09-19T08:30:29;100640.06;;;16.22;84.85
29941;BME280;16801;53.562;10.038;2023-09-19T08:33:52;100635.66;;;16.21;83.67
29941;BME280;16801;53.562;10.038;2023-09-19T08:37:15;100646.56;;;16.43;83.85
29941;BME280;16801;53.562;10.038;2023-09-19T08:40:38;100647.59;;;16.42;83.36
29941;BME280;16801;53.562;10.038;2023-09-19T08:44:01;100653.16;;;16.49;83.49
29941;BME280;16801;53.562;10.038;2023-09-19T08:47:29;100655.88;;;16.49;82.42
29941;BME280;16801;53.562;10.038;2023-09-19T08:51:00;100653.66;;;16.60;81.64
29941;BME280;16801;53.562;10.038;2023-09-19T08:54:25;100654.13;;;16.64;81.55
29941;BME280;16801;53.562;10.038;2023-09-19T08:57:49;100651.28;;;16.57;81.65
29941;BME280;16801;53.562;10.038;2023-09-19T09:01:11;100654.31;;;16.85;81.08
29941;BME280;16801;53.562;10.038;2023-09-19T09:04:34;100644.69;;;16.74;81.45
29941;BME280;16801;53.562;10.038;2023-09-19T09:07:57;100662.88;;;16.74;81.40
29941;BME280;16801;53.562;10.038;2023-09-19T09:11:19;100663.25;;;16.94;80.92
29941;BME280;16801;53.562;10.038;2023-09-19T09:14:44;100662.47;;;16.85;80.67
29941;BME280;16801;53.562;10.038;2023-09-19T09:18:06;100671.38;;;17.02;80.72
29941;BME280;16801;53.562;10.038;2023-09-19T09:21:27;100668.75;;;17.08;79.38
29941;BME280;16801;53.562;10.038;2023-09-19T09:24:53;100672.06;;;17.18;78.74
29941;BME280;16801;53.562;10.038;2023-09-19T09:28:19;100676.16;;;17.00;78.82
29941;BME280;16801;53.562;10.038;2023-09-19T09:31:40;100662.78;;;17.27;77.89
29941;BME280;16801;53.562;10.038;2023-09-19T09:35:07;100674.25;;;17.60;76.18
29941;BME280;16801;53.562;10.038;2023-09-19T09:38:30;100682.06;;;17.40;75.56
29941;BME280;16801;53.562;10.038;2023-09-19T09:42:05;100673.75;;;17.56;75.06
29941;BME280;16801;53.562;10.038;2023-09-19T09:45:26;100664.88;;;17.63;74.27
29941;BME280;16801;53.562;10.038;2023-09-19T09:48:58;100662.06;;;17.85;73.57
29941;BME280;16801;53.562;10.038;2023-09-19T09:52:46;100674.91;;;18.20;72.14
29941;BME280;16801;53.562;10.038;2023-09-19T09:56:08;100679.03;;;18.31;71.37
29941;BME280;16801;53.562;10.038;2023-09-19T09:59:49;100668.66;;;18.41;71.23
29941;BME280;16801;53.562;10.038;2023-09-19T10:03:19;100668.19;;;18.38;68.27
29941;BME280;16801;53.562;10.038;2023-09-19T10:06:41;100663.63;;;18.59;67.71
29941;BME280;16801;53.562;10.038;2023-09-19T10:10:07;100674.69;;;18.36;66.68
29941;BME280;16801;53.562;10.038;2023-09-19T10:13:37;100674.44;;;18.67;66.43
29941;BME280;16801;53.562;10.038;2023-09-19T10:17:05;100669.34;;;18.28;66.44
29941;BME280;16801;53.562;10.038;2023-09-19T10:20:26;100664.38;;;18.68;64.86
29941;BME280;16801;53.562;10.038;2023-09-19T10:23:56;100673.81;;;19.07;63.35
29941;BME280;16801;53.562;10.038;2023-09-19T10:27:19;100669.50;;;18.98;63.60
29941;BME280;16801;53.562;10.038;2023-09-19T10:30:41;100661.09;;;19.42;61.66
29941;BME280;16801;53.562;10.038;2023-09-19T10:34:06;100665.09;;;19.40;61.93
29941;BME280;16801;53.562;10.038;2023-09-19T10:37:31;100675.56;;;19.36;62.33
29941;BME280;16801;53.562;10.038;2023-09-19T10:40:56;100667.66;;;18.63;64.00
29941;BME280;16801;53.562;10.038;2023-09-19T10:44:22;100679.13;;;18.52;64.11
29941;BME280;16801;53.562;10.038;2023-09-19T10:47:44;100669.88;;;18.53;63.70
29941;BME280;16801;53.562;10.038;2023-09-19T10:51:09;100673.56;;;18.31;63.19
29941;BME280;16801;53.562;10.038;2023-09-19T10:54:33;100667.16;;;18.53;63.81
29941;BME280;16801;53.562;10.038;2023-09-19T10:57:56;100670.69;;;19.59;61.53
29941;BME280;16801;53.562;10.038;2023-09-19T11:01:20;100689.09;;;18.45;63.47
29941;BME280;16801;53.562;10.038;2023-09-19T11:04:41;100678.38;;;18.79;62.40
29941;BME280;16801;53.562;10.038;2023-09-19T11:08:03;100670.16;;;19.70;60.56
29941;BME280;16801;53.562;10.038;2023-09-19T11:11:45;100679.56;;;19.34;61.41
29941;BME280;16801;53.562;10.038;2023-09-19T11:15:10;100682.28;;;18.91;62.66
29941;BME280;16801;53.562;10.038;2023-09-19T11:18:51;100682.66;;;18.88;62.61
29941;BME280;16801;53.562;10.038;2023-09-19T11:22:13;100681.66;;;19.17;61.79
29941;BME280;16801;53.562;10.038;2023-09-19T11:25:44;100681.78;;;19.51;60.55
29941;BME280;16801;53.562;10.038;2023-09-19T11:29:24;100670.19;;;19.77;60.94
29941;BME280;16801;53.562;10.038;2023-09-19T11:33:17;100656.59;;;20.98;56.22
29941;BME280;16801;53.562;10.038;2023-09-19T11:36:40;100670.53;;;19.61;57.53
29941;BME280;16801;53.562;10.038;2023-09-19T11:40:08;100666.72;;;19.62;57.96
29941;BME280;16801;53.562;10.038;2023-09-19T11:43:35;100688.09;;;18.67;60.03
29941;BME280;16801;53.562;10.038;2023-09-19T11:47:00;100668.81;;;18.69;60.82
29941;BME280;16801;53.562;10.038;2023-09-19T11:50:23;100685.44;;;19.58;59.07
29941;BME280;16801;53.562;10.038;2023-09-19T11:53:45;100660.66;;;20.41;57.06
29941;BME280;16801;53.562;10.038;2023-09-19T11:57:07;100658.50;;;19.89;58.20
29941;BME280;16801;53.562;10.038;2023-09-19T12:00:30;100655.31;;;20.87;55.53
29941;BME280;16801;53.562;10.038;2023-09-19T12:03:54;100653.13;;;20.56;57.07
29941;BME280;16801;53.562;10.038;2023-09-19T12:07:16;100665.47;;;20.33;58.10
29941;BME280;16801;53.562;10.038;2023-09-19T12:10:45;100657.16;;;20.73;56.86
29941;BME280;16801;53.562;10.038;2023-09-19T12:14:06;100668.91;;;20.48;57.21
29941;BME280;16801;53.562;10.038;2023-09-19T12:17:36;100675.25;;;20.14;57.71
29941;BME280;16801;53.562;10.038;2023-09-19T12:20:57;100687.56;;;19.35;59.37
29941;BME280;16801;53.562;10.038;2023-09-19T12:24:18;100674.44;;;19.52;59.15
29941;BME280;16801;53.562;10.038;2023-09-19T12:27:42;100653.38;;;19.25;60.46
29941;BME280;16801;53.562;10.038;2023-09-19T12:31:06;100668.06;;;20.13;58.49
29941;BME280;16801;53.562;10.038;2023-09-19T12:34:30;100665.94;;;20.02;58.16
29941;BME280;16801;53.562;10.038;2023-09-19T12:37:54;100653.03;;;21.76;53.58
29941;BME280;16801;53.562;10.038;2023-09-19T12:41:16;100650.78;;;19.72;58.30
29941;BME280;16801;53.562;10.038;2023-09-19T12:44:40;100657.72;;;19.68;58.23
29941;BME280;16801;53.562;10.038;2023-09-19T12:48:18;100652.31;;;20.69;56.42
29941;BME280;16801;53.562;10.038;2023-09-19T12:51:42;100642.84;;;19.77;57.09
29941;BME280;16801;53.562;10.038;2023-09-19T12:55:04;100643.50;;;20.87;56.17
29941;BME280;16801;53.562;10.038;2023-09-19T12:58:26;100641.88;;;21.25;53.73
29941;BME280;16801;53.562;10.038;2023-09-19T13:02:03;100636.34;;;20.86;54.47
29941;BME280;16801;53.562;10.038;2023-09-19T13:05:46;100641.56;;;19.73;56.04
29941;BME280;16801;53.562;10.038;2023-09-19T13:09:09;100634.75;;;20.37;55.43
29941;BME280;16801;53.562;10.038;2023-09-19T13:12:38;100624.00;;;20.36;55.54
29941;BME280;16801;53.562;10.038;2023-09-19T13:16:02;100624.47;;;20.12;55.62
29941;BME280;16801;53.562;10.038;2023-09-19T13:19:38;100632.38;;;19.87;56.16
29941;BME280;16801;53.562;10.038;2023-09-19T13:23:00;100613.66;;;20.44;56.13
29941;BME280;16801;53.562;10.038;2023-09-19T13:26:31;100608.44;;;21.80;51.74
29941;BME280;16801;53.562;10.038;2023-09-19T13:29:51;100617.09;;;20.59;53.69
29941;BME280;16801;53.562;10.038;2023-09-19T13:33:12;100624.06;;;19.74;56.18
29941;BME280;16801;53.562;10.038;2023-09-19T13:36:40;100598.59;;;20.88;53.08
29941;BME280;16801;53.562;10.038;2023-09-19T13:40:02;100620.69;;;20.06;55.01
29941;BME280;16801;53.562;10.038;2023-09-19T13:43:26;100614.22;;;21.26;51.98
29941;BME280;16801;53.562;10.038;2023-09-19T13:46:48;100608.88;;;20.59;53.14
29941;BME280;16801;53.562;10.038;2023-09-19T13:50:10;100584.66;;;22.25;49.61
29941;BME280;16801;53.562;10.038;2023-09-19T13:53:31;100599.53;;;23.60;47.01
29941;BME280;16801;53.562;10.038;2023-09-19T13:56:52;100577.69;;;21.52;50.48
29941;BME280;16801;53.562;10.038;2023-09-19T14:00:15;100593.31;;;20.80;52.70
29941;BME280;16801;53.562;10.038;2023-09-19T14:03:36;100601.91;;;21.88;51.04
29941;BME280;16801;53.562;10.038;2023-09-19T14:06:57;100583.03;;;21.34;51.72
29941;BME280;16801;53.562;10.038;2023-09-19T14:10:18;100574.34;;;20.91;53.03
29941;BME280;16801;53.562;10.038;2023-09-19T14:13:39;100578.56;;;20.07;54.14
29941;BME280;16801;53.562;10.038;2023-09-19T14:17:01;100570.31;;;21.53;51.69
29941;BME280;16801;53.562;10.038;2023-09-19T14:20:22;100573.88;;;21.66;51.50
29941;BME280;16801;53.562;10.038;2023-09-19T14:23:43;100580.16;;;21.80;49.85
29941;BME280;16801;53.562;10.038;2023-09-19T14:27:05;100577.09;;;20.98;52.65
29941;BME280;16801;53.562;10.038;2023-09-19T14:30:28;100561.84;;;20.36;54.17
29941;BME280;16801;53.562;10.038;2023-09-19T14:33:54;100565.94;;;20.06;55.71
29941;BME280;16801;53.562;10.038;2023-09-19T14:37:16;100565.84;;;20.40;55.49
29941;BME280;16801;53.562;10.038;2023-09-19T14:40:37;100565.09;;;20.06;56.05
29941;BME280;16801;53.562;10.038;2023-09-19T14:43:59;100553.94;;;20.07;56.90
29941;BME280;16801;53.562;10.038;2023-09-19T14:47:19;100551.66;;;19.70;57.58
29941;BME280;16801;53.562;10.038;2023-09-19T14:50:42;100553.72;;;19.61;58.62
29941;BME280;16801;53.562;10.038;2023-09-19T14:54:04;100556.78;;;19.79;58.75
29941;BME280;16801;53.562;10.038;2023-09-19T14:57:25;100558.38;;;19.67;59.07
29941;BME280;16801;53.562;10.038;2023-09-19T15:00:46;100557.47;;;19.54;60.18
29941;BME280;16801;53.562;10.038;2023-09-19T15:04:07;100563.00;;;19.60;60.34
29941;BME280;16801;53.562;10.038;2023-09-19T15:07:29;100547.28;;;19.35;60.91
29941;BME280;16801;53.562;10.038;2023-09-19T15:10:50;100554.91;;;19.46;61.29
29941;BME280;16801;53.562;10.038;2023-09-19T15:14:12;100552.75;;;19.35;61.65
29941;BME280;16801;53.562;10.038;2023-09-19T15:17:33;100559.53;;;19.17;62.47
29941;BME280;16801;53.562;10.038;2023-09-19T15:20:54;100545.69;;;19.19;62.96
29941;BME280;16801;53.562;10.038;2023-09-19T15:24:16;100557.00;;;19.16;63.10
29941;BME280;16801;53.562;10.038;2023-09-19T15:27:37;100546.34;;;19.28;63.42
29941;BME280;16801;53.562;10.038;2023-09-19T15:30:59;100548.25;;;19.27;63.74
29941;BME280;16801;53.562;10.038;2023-09-19T15:34:21;100558.44;;;19.12;63.75
29941;BME280;16801;53.562;10.038;2023-09-19T15:37:42;100553.19;;;19.10;63.75
29941;BME280;16801;53.562;10.038;2023-09-19T15:41:04;100554.97;;;19.25;64.04
29941;BME280;16801;53.562;10.038;2023-09-19T15:44:25;100534.59;;;19.27;64.08
29941;BME280;16801;53.562;10.038;2023-09-19T15:47:46;100522.84;;;19.33;63.82
29941;BME280;16801;53.562;10.038;2023-09-19T15:51:08;100534.06;;;19.17;64.14
29941;BME280;16801;53.562;10.038;2023-09-19T15:54:31;100526.53;;;19.19;64.37
29941;BME280;16801;53.562;10.038;2023-09-19T15:57:54;100529.41;;;19.11;64.21
29941;BME280;16801;53.562;10.038;2023-09-19T16:01:15;100541.63;;;19.15;64.67
29941;BME280;16801;53.562;10.038;2023-09-19T16:04:36;100531.75;;;19.14;64.24
29941;BME280;16801;53.562;10.038;2023-09-19T16:07:58;100509.03;;;19.13;64.55
29941;BME280;16801;53.562;10.038;2023-09-19T16:11:19;100521.63;;;19.08;64.77
29941;BME280;16801;53.562;10.038;2023-09-19T16:14:41;100522.88;;;19.05;64.71
29941;BME280;16801;53.562;10.038;2023-09-19T16:18:02;100520.94;;;18.99;64.65
29941;BME280;16801;53.562;10.038;2023-09-19T16:21:23;100533.53;;;19.00;64.70
29941;BME280;16801;53.562;10.038;2023-09-19T16:24:46;100520.03;;;18.92;64.49
29941;BME280;16801;53.562;10.038;2023-09-19T16:28:07;100516.50;;;18.98;64.40
29941;BME280;16801;53.562;10.038;2023-09-19T16:31:30;100518.16;;;18.93;64.54
29941;BME280;16801;53.562;10.038;2023-09-19T16:34:52;100523.03;;;18.97;64.46
29941;BME280;16801;53.562;10.038;2023-09-19T16:38:13;100550.06;;;18.92;64.40
29941;BME280;16801;53.562;10.038;2023-09-19T16:41:34;100518.59;;;18.96;64.56
29941;BME280;16801;53.562;10.038;2023-09-19T16:44:55;100524.91;;;18.97;64.56
29941;BME280;16801;53.562;10.038;2023-09-19T16:48:17;100538.50;;;18.90;64.66
29941;BME280;16801;53.562;10.038;2023-09-19T16:51:38;100543.16;;;18.90;64.86
29941;BME280;16801;53.562;10.038;2023-09-19T16:55:01;100537.47;;;18.91;65.11
29941;BME280;16801;53.562;10.038;2023-09-19T16:58:21;100535.78;;;18.90;65.14
29941;BME280;16801;53.562;10.038;2023-09-19T17:01:45;100547.56;;;18.91;65.30
29941;BME280;16801;53.562;10.038;2023-09-19T17:05:08;100539.56;;;18.89;65.32
29941;BME280;16801;53.562;10.038;2023-09-19T17:08:29;100533.31;;;18.95;65.22
29941;BME280;16801;53.562;10.038;2023-09-19T17:11:50;100530.13;;;18.92;65.11
29941;BME280;16801;53.562;10.038;2023-09-19T17:15:11;100535.97;;;18.89;65.35
29941;BME280;16801;53.562;10.038;2023-09-19T17:18:32;100530.31;;;18.90;65.01
29941;BME280;16801;53.562;10.038;2023-09-19T17:21:55;100531.75;;;18.86;65.29
29941;BME280;16801;53.562;10.038;2023-09-19T17:25:17;100538.06;;;18.87;65.68
29941;BME280;16801;53.562;10.038;2023-09-19T17:28:38;100550.50;;;18.89;65.41